Time;durP1;ratioP1;P1;durP2;ratioP2;P2;SDS_P1;SDS_P2;PMS_P1;PMS_P2;Temp;Humidity;BMP_temperature;BMP_pressure;BME280_temperature;BME280_humidity;BME280_pressure;Samples;Min_cycle;Max_cycle;Signal;HPM_P1;HPM_P2
2023/09/28 00:18:33;;;;;;;8.80;7.18;;;;;;;24.67;47.45;100784.88;41133220;28;20402;-64
2023/09/28 00:38:33;;;;;;;8.05;6.43;;;;;;;24.73;47.54;100810.84;41126678;28;20046;-63
2023/09/28 00:58:37;;;;;;;8.18;6.30;;;;;;;24.69;47.91;100815.56;41120974;28;20047;-63
2023/09/28 01:18:38;;;;;;;7.47;5.95;;;;;;;24.66;47.44;100804.38;41112800;28;20050;-63
2023/09/28 01:38:42;;;;;;;7.53;6.50;;;;;;;24.64;47.81;100808.97;41131868;28;20471;-64
2023/09/28 01:58:43;;;;;;;;;;;;;;;24.61;47.89;100828.59;41145934;28;20058;-65
2023/09/28 02:18:43;;;;;;;7.47;6.53;;;;;;;24.59;47.64;100810.19;41141352;28;19937;-63
2023/09/28 02:38:44;;;;;;;7.78;6.00;;;;;;;24.42;47.80;100808.97;41143348;28;20397;-61
2023/09/28 02:58:46;;;;;;;8.05;6.45;;;;;;;24.48;47.56;100807.63;41129643;28;20165;-63
2023/09/28 03:18:47;;;;;;;8.13;6.53;;;;;;;24.47;47.92;100824.47;41135978;28;20049;-64
2023/09/28 03:38:48;;;;;;;7.25;6.15;;;;;;;24.47;47.60;100853.59;41137317;28;20043;-64
2023/09/28 03:58:48;;;;;;;7.88;6.43;;;;;;;24.46;47.46;100850.09;41127191;28;20042;-68
2023/09/28 04:18:49;;;;;;;9.43;6.40;;;;;;;24.50;47.69;100860.41;41109167;28;20043;-64
2023/09/28 04:38:49;;;;;;;12.50;6.35;;;;;;;22.98;47.46;100869.88;41101064;28;20038;-62
2023/09/28 04:58:50;;;;;;;10.35;5.97;;;;;;;22.33;46.85;100882.69;41112004;28;20047;-63
2023/09/28 05:18:50;;;;;;;12.70;6.13;;;;;;;21.79;47.35;100897.13;41135363;28;20050;-65
2023/09/28 05:38:51;;;;;;;15.95;6.32;;;;;;;21.88;47.18;100902.59;41138709;28;20047;-62
2023/09/28 05:58:51;;;;;;;13.82;6.60;;;;;;;21.85;46.99;100917.78;41152106;28;20455;-62
2023/09/28 06:18:52;;;;;;;12.43;7.10;;;;;;;21.73;47.67;100927.44;41147115;28;20046;-63
2023/09/28 06:38:54;;;;;;;10.65;6.53;;;;;;;21.96;46.57;100924.91;41141763;28;20058;-62
2023/09/28 06:58:55;;;;;;;13.55;6.60;;;;;;;21.84;47.15;100948.59;41126040;28;20035;-63
2023/09/28 07:18:55;;;;;;;16.50;6.47;;;;;;;22.20;47.01;100957.44;41169107;28;20404;-66
2023/09/28 07:38:56;;;;;;;17.67;5.63;;;;;;;22.45;46.36;100916.09;41186117;28;20046;-66
2023/09/28 07:58:57;;;;;;;15.82;6.03;;;;;;;22.63;46.79;100961.38;41175528;28;20500;-66
2023/09/28 08:18:58;;;;;;;25.55;6.43;;;;;;;23.18;46.25;100956.38;41187682;28;20053;-66
2023/09/28 08:38:59;;;;;;;27.30;7.60;;;;;;;23.75;46.19;100937.84;41190674;28;20066;-67
2023/09/28 08:59:01;;;;;;;23.85;7.05;;;;;;;23.58;47.54;100948.94;41207204;28;20039;-65
2023/09/28 09:19:01;;;;;;;24.02;7.45;;;;;;;24.02;46.71;100943.75;41223831;28;20050;-65
2023/09/28 09:39:01;;;;;;;78.85;10.10;;;;;;;24.36;46.91;100928.59;41208754;28;20454;-66
2023/09/28 09:59:05;;;;;;;115.28;13.90;;;;;;;24.64;48.60;100912.22;41179643;28;20074;-66
2023/09/28 10:19:08;;;;;;;1999.90;663.90;;;;;;;24.94;48.32;100901.69;41154586;28;20581;-63
2023/09/28 10:39:15;;;;;;;366.67;81.70;;;;;;;24.88;43.59;100896.94;41188445;28;20046;-69
2023/09/28 10:59:18;;;;;;;241.88;55.38;;;;;;;25.32;44.01;100886.13;41201686;28;20090;-69
2023/09/28 11:19:19;;;;;;;174.65;43.20;;;;;;;25.24;44.41;100870.03;41221443;28;20058;-68
2023/09/28 11:39:23;;;;;;;100.68;29.65;;;;;;;25.30;43.26;100808.53;41169784;28;20137;-68
2023/09/28 11:59:24;;;;;;;68.60;22.40;;;;;;;26.01;43.99;100843.81;41177929;28;20058;-66
2023/09/28 12:19:25;;;;;;;44.17;17.42;;;;;;;26.36;45.30;100813.22;41147893;28;20132;-67
2023/09/28 12:39:25;;;;;;;50.17;14.90;;;;;;;25.87;45.13;100753.06;41171630;28;20058;-66
2023/09/28 12:59:26;;;;;;;39.33;12.82;;;;;;;26.47;44.06;100790.97;41157638;28;20065;-64
2023/09/28 13:19:26;;;;;;;28.85;10.38;;;;;;;26.66;45.39;100787.44;41166030;28;20061;-64
2023/09/28 13:39:27;;;;;;;19.10;7.35;;;;;;;27.03;38.47;100775.13;41171801;28;20047;-64
2023/09/28 13:59:27;;;;;;;18.52;5.63;;;;;;;26.90;37.05;100770.16;41185194;28;20133;-64
2023/09/28 14:19:28;;;;;;;15.50;5.03;;;;;;;26.79;37.12;100752.59;41164414;28;20385;-65
2023/09/28 14:39:28;;;;;;;22.05;5.32;;;;;;;26.82;37.84;100739.03;40988134;28;20051;-64
2023/09/28 14:59:29;;;;;;;11.57;4.70;;;;;;;26.77;37.91;100742.13;40994043;28;20066;-63
2023/09/28 15:19:31;;;;;;;19.95;5.45;;;;;;;26.72;38.82;100716.94;41012043;28;20102;-65
2023/09/28 15:39:32;;;;;;;10.38;5.13;;;;;;;26.39;37.55;100741.28;41029255;28;20101;-65
2023/09/28 15:59:33;;;;;;;17.60;5.47;;;;;;;25.75;39.79;100756.84;40974958;28;20039;-64
2023/09/28 16:19:33;;;;;;;15.40;5.93;;;;;;;25.42;39.03;100765.06;40955326;28;20153;-64
2023/09/28 16:39:34;;;;;;;19.55;5.63;;;;;;;25.11;40.13;100766.94;40962911;28;20740;-62
2023/09/28 16:59:34;;;;;;;18.35;6.53;;;;;;;24.84;41.33;100775.47;41025708;28;20046;-64
2023/09/28 17:19:35;;;;;;;23.67;7.47;;;;;;;24.93;41.99;100779.97;41139167;28;20052;-64
2023/09/28 17:39:36;;;;;;;26.23;7.63;;;;;;;25.20;42.44;100774.06;41134879;28;20050;-64
2023/09/28 17:59:37;;;;;;;22.63;8.10;;;;;;;25.36;43.96;100800.03;41150760;28;20054;-64
2023/09/28 18:19:39;;;;;;;25.13;7.97;;;;;;;25.40;46.19;100812.09;41109585;28;20042;-65
2023/09/28 18:39:40;;;;;;;23.67;9.63;;;;;;;25.42;46.46;100830.50;41130244;28;20055;-66
2023/09/28 18:59:41;;;;;;;35.15;13.02;;;;;;;25.67;52.04;100844.22;41126899;28;20061;-65
2023/09/28 19:19:44;;;;;;;28.00;13.68;;;;;;;25.41;51.47;100864.13;41129402;28;20058;-62
2023/09/28 19:39:46;;;;;;;25.40;13.55;;;;;;;25.21;51.38;100849.13;41136406;28;20042;-63
2023/09/28 19:59:47;;;;;;;24.30;13.52;;;;;;;25.21;50.11;100870.31;41135069;28;20042;-62
2023/09/28 20:19:55;;;;;;;22.17;13.02;;;;;;;25.19;50.11;100882.84;41147279;28;20050;-64
2023/09/28 20:39:55;;;;;;;18.40;12.57;;;;;;;25.13;49.95;100883.38;41164574;28;20133;-63
2023/09/28 20:59:56;;;;;;;18.77;11.20;;;;;;;25.07;49.63;100882.94;41169034;28;20768;-63
2023/09/28 21:19:56;;;;;;;18.42;11.07;;;;;;;25.03;49.74;100878.88;41169022;28;20046;-63
2023/09/28 21:39:57;;;;;;;18.02;10.75;;;;;;;25.02;49.16;100884.31;41158164;28;20051;-63
2023/09/28 21:59:57;;;;;;;14.85;10.13;;;;;;;24.97;49.71;100887.34;41157146;28;20055;-62
2023/09/28 22:20:00;;;;;;;13.23;9.63;;;;;;;24.92;49.54;100903.63;41157225;28;20046;-62
2023/09/28 22:40:01;;;;;;;17.65;9.85;;;;;;;24.86;49.50;100904.16;41154471;28;20049;-62
2023/09/28 23:00:09;;;;;;;11.98;9.27;;;;;;;24.85;49.45;100914.91;41156350;28;20034;-63
2023/09/28 23:20:10;;;;;;;13.10;8.60;;;;;;;24.82;49.06;100921.28;41145751;28;20105;-62
2023/09/28 23:40:13;;;;;;;11.45;8.85;;;;;;;24.78;49.04;100920.72;41143446;28;20038;-62
